sensor_id;sensor_type;location;lat;lon;timestamp;P1;durP1;ratioP1;P2;durP2;ratioP2
16577;SDS011;8401;52.528;13.340;2024-01-07T00:01:02;3.57;;;2.63;;
16577;SDS011;8401;52.528;13.340;2024-01-07T00:03:28;12.33;;;4.00;;
16577;SDS011;8401;52.528;13.340;2024-01-07T00:05:53;7.93;;;3.37;;
16577;SDS011;8401;52.528;13.340;2024-01-07T00:08:19;5.03;;;3.00;;
16577;SDS011;8401;52.528;13.340;2024-01-07T00:10:46;6.37;;;3.50;;
16577;SDS011;8401;52.528;13.340;2024-01-07T00:13:11;6.53;;;3.07;;
16577;SDS011;8401;52.528;13.340;2024-01-07T00:15:37;4.73;;;3.10;;
16577;SDS011;8401;52.528;13.340;2024-01-07T00:18:02;5.40;;;2.93;;
16577;SDS011;8401;52.528;13.340;2024-01-07T00:20:28;5.67;;;3.13;;
16577;SDS011;8401;52.528;13.340;2024-01-07T00:22:54;5.07;;;3.30;;
16577;SDS011;8401;52.528;13.340;2024-01-07T00:25:21;10.33;;;3.50;;
16577;SDS011;8401;52.528;13.340;2024-01-07T00:27:47;4.33;;;2.63;;
16577;SDS011;8401;52.528;13.340;2024-01-07T00:30:12;5.57;;;2.87;;
16577;SDS011;8401;52.528;13.340;2024-01-07T00:32:38;4.97;;;2.80;;
16577;SDS011;8401;52.528;13.340;2024-01-07T00:35:04;7.03;;;3.20;;
16577;SDS011;8401;52.528;13.340;2024-01-07T00:37:30;5.97;;;2.90;;
16577;SDS011;8401;52.528;13.340;2024-01-07T00:39:56;4.47;;;2.50;;
16577;SDS011;8401;52.528;13.340;2024-01-07T00:42:21;3.00;;;1.67;;
16577;SDS011;8401;52.528;13.340;2024-01-07T00:44:47;4.57;;;2.63;;
16577;SDS011;8401;52.528;13.340;2024-01-07T00:47:12;5.53;;;2.70;;
16577;SDS011;8401;52.528;13.340;2024-01-07T00:49:38;2.77;;;1.87;;
16577;SDS011;8401;52.528;13.340;2024-01-07T00:52:05;5.40;;;2.20;;
16577;SDS011;8401;52.528;13.340;2024-01-07T00:54:31;3.47;;;2.23;;
16577;SDS011;8401;52.528;13.340;2024-01-07T00:56:56;4.07;;;2.10;;
16577;SDS011;8401;52.528;13.340;2024-01-07T00:59:22;4.40;;;2.53;;
16577;SDS011;8401;52.528;13.340;2024-01-07T01:01:47;2.93;;;1.53;;
16577;SDS011;8401;52.528;13.340;2024-01-07T01:04:13;3.07;;;1.80;;
16577;SDS011;8401;52.528;13.340;2024-01-07T01:06:39;3.27;;;1.83;;
16577;SDS011;8401;52.528;13.340;2024-01-07T01:09:04;3.10;;;1.93;;
16577;SDS011;8401;52.528;13.340;2024-01-07T01:11:30;4.93;;;2.33;;
16577;SDS011;8401;52.528;13.340;2024-01-07T01:13:56;2.87;;;1.70;;
16577;SDS011;8401;52.528;13.340;2024-01-07T01:16:21;3.57;;;1.70;;
16577;SDS011;8401;52.528;13.340;2024-01-07T01:18:49;4.17;;;1.97;;
16577;SDS011;8401;52.528;13.340;2024-01-07T01:21:15;3.97;;;1.83;;
16577;SDS011;8401;52.528;13.340;2024-01-07T01:23:40;4.23;;;1.87;;
16577;SDS011;8401;52.528;13.340;2024-01-07T01:26:06;1.67;;;1.13;;
16577;SDS011;8401;52.528;13.340;2024-01-07T01:28:31;4.53;;;2.03;;
16577;SDS011;8401;52.528;13.340;2024-01-07T01:30:57;5.13;;;2.10;;
16577;SDS011;8401;52.528;13.340;2024-01-07T01:33:22;2.17;;;1.17;;
16577;SDS011;8401;52.528;13.340;2024-01-07T01:35:48;5.93;;;2.07;;
16577;SDS011;8401;52.528;13.340;2024-01-07T01:38:14;3.13;;;1.90;;
16577;SDS011;8401;52.528;13.340;2024-01-07T01:40:39;3.67;;;1.80;;
16577;SDS011;8401;52.528;13.340;2024-01-07T01:43:05;3.47;;;1.57;;
16577;SDS011;8401;52.528;13.340;2024-01-07T01:45:30;2.93;;;2.00;;
16577;SDS011;8401;52.528;13.340;2024-01-07T01:47:56;6.87;;;1.87;;
16577;SDS011;8401;52.528;13.340;2024-01-07T01:50:22;3.00;;;1.80;;
16577;SDS011;8401;52.528;13.340;2024-01-07T01:52:48;3.00;;;2.10;;
16577;SDS011;8401;52.528;13.340;2024-01-07T01:55:14;3.40;;;2.00;;
16577;SDS011;8401;52.528;13.340;2024-01-07T01:57:40;4.47;;;2.23;;
16577;SDS011;8401;52.528;13.340;2024-01-07T02:00:06;3.80;;;2.13;;
16577;SDS011;8401;52.528;13.340;2024-01-07T02:02:33;2.90;;;2.10;;
16577;SDS011;8401;52.528;13.340;2024-01-07T02:05:02;2.67;;;1.20;;
16577;SDS011;8401;52.528;13.340;2024-01-07T02:07:28;3.67;;;2.07;;
16577;SDS011;8401;52.528;13.340;2024-01-07T02:09:55;2.87;;;1.70;;
16577;SDS011;8401;52.528;13.340;2024-01-07T02:12:21;2.93;;;1.90;;
16577;SDS011;8401;52.528;13.340;2024-01-07T02:14:47;2.13;;;1.30;;
16577;SDS011;8401;52.528;13.340;2024-01-07T02:17:13;4.70;;;2.43;;
16577;SDS011;8401;52.528;13.340;2024-01-07T02:19:39;2.43;;;1.80;;
16577;SDS011;8401;52.528;13.340;2024-01-07T02:22:05;1.60;;;1.40;;
16577;SDS011;8401;52.528;13.340;2024-01-07T02:24:31;2.93;;;2.37;;
16577;SDS011;8401;52.528;13.340;2024-01-07T02:26:57;3.53;;;2.13;;
16577;SDS011;8401;52.528;13.340;2024-01-07T02:29:30;3.13;;;1.80;;
16577;SDS011;8401;52.528;13.340;2024-01-07T02:31:55;3.97;;;2.33;;
16577;SDS011;8401;52.528;13.340;2024-01-07T02:34:21;3.63;;;2.13;;
16577;SDS011;8401;52.528;13.340;2024-01-07T02:36:46;4.43;;;1.73;;
16577;SDS011;8401;52.528;13.340;2024-01-07T02:39:12;3.63;;;1.80;;
16577;SDS011;8401;52.528;13.340;2024-01-07T02:41:38;3.27;;;2.13;;
16577;SDS011;8401;52.528;13.340;2024-01-07T02:44:03;6.07;;;2.27;;
16577;SDS011;8401;52.528;13.340;2024-01-07T02:46:29;2.67;;;1.67;;
16577;SDS011;8401;52.528;13.340;2024-01-07T02:48:55;2.60;;;1.70;;
16577;SDS011;8401;52.528;13.340;2024-01-07T02:51:21;3.20;;;1.63;;
16577;SDS011;8401;52.528;13.340;2024-01-07T02:53:47;2.47;;;1.53;;
16577;SDS011;8401;52.528;13.340;2024-01-07T02:56:12;4.00;;;1.43;;
16577;SDS011;8401;52.528;13.340;2024-01-07T02:58:38;6.03;;;1.83;;
16577;SDS011;8401;52.528;13.340;2024-01-07T03:01:07;2.13;;;1.17;;
16577;SDS011;8401;52.528;13.340;2024-01-07T03:03:34;2.70;;;1.33;;
16577;SDS011;8401;52.528;13.340;2024-01-07T03:06:00;2.60;;;1.43;;
16577;SDS011;8401;52.528;13.340;2024-01-07T03:08:25;1.87;;;1.27;;
16577;SDS011;8401;52.528;13.340;2024-01-07T03:10:52;2.50;;;1.37;;
16577;SDS011;8401;52.528;13.340;2024-01-07T03:13:18;1.87;;;1.60;;
16577;SDS011;8401;52.528;13.340;2024-01-07T03:15:44;2.43;;;1.27;;
16577;SDS011;8401;52.528;13.340;2024-01-07T03:18:10;2.27;;;1.43;;
16577;SDS011;8401;52.528;13.340;2024-01-07T03:20:35;2.37;;;1.10;;
16577;SDS011;8401;52.528;13.340;2024-01-07T03:23:01;1.80;;;1.30;;
16577;SDS011;8401;52.528;13.340;2024-01-07T03:25:26;2.47;;;1.50;;
16577;SDS011;8401;52.528;13.340;2024-01-07T03:27:52;2.37;;;0.50;;
16577;SDS011;8401;52.528;13.340;2024-01-07T03:30:18;2.80;;;0.97;;
16577;SDS011;8401;52.528;13.340;2024-01-07T03:32:43;2.63;;;1.40;;
16577;SDS011;8401;52.528;13.340;2024-01-07T03:35:09;2.33;;;1.27;;
16577;SDS011;8401;52.528;13.340;2024-01-07T03:37:35;1.30;;;0.93;;
16577;SDS011;8401;52.528;13.340;2024-01-07T03:40:00;2.23;;;1.53;;
16577;SDS011;8401;52.528;13.340;2024-01-07T03:42:26;2.10;;;1.37;;
16577;SDS011;8401;52.528;13.340;2024-01-07T03:44:52;3.27;;;1.60;;
16577;SDS011;8401;52.528;13.340;2024-01-07T03:47:17;1.83;;;1.30;;
16577;SDS011;8401;52.528;13.340;2024-01-07T03:49:43;1.70;;;0.83;;
16577;SDS011;8401;52.528;13.340;2024-01-07T03:52:08;2.67;;;1.30;;
16577;SDS011;8401;52.528;13.340;2024-01-07T03:54:34;3.53;;;1.57;;
16577;SDS011;8401;52.528;13.340;2024-01-07T03:57:00;2.63;;;1.40;;
16577;SDS011;8401;52.528;13.340;2024-01-07T03:59:25;4.77;;;1.50;;
16577;SDS011;8401;52.528;13.340;2024-01-07T04:01:56;2.20;;;1.40;;
16577;SDS011;8401;52.528;13.340;2024-01-07T04:04:22;1.80;;;1.30;;
16577;SDS011;8401;52.528;13.340;2024-01-07T04:06:48;2.97;;;1.90;;
16577;SDS011;8401;52.528;13.340;2024-01-07T04:09:14;2.73;;;1.70;;
16577;SDS011;8401;52.528;13.340;2024-01-07T04:11:40;2.20;;;1.80;;
16577;SDS011;8401;52.528;13.340;2024-01-07T04:14:06;1.10;;;0.80;;
16577;SDS011;8401;52.528;13.340;2024-01-07T04:16:32;3.07;;;1.60;;
16577;SDS011;8401;52.528;13.340;2024-01-07T04:18:58;2.73;;;1.50;;
16577;SDS011;8401;52.528;13.340;2024-01-07T04:21:24;2.83;;;2.00;;
16577;SDS011;8401;52.528;13.340;2024-01-07T04:23:49;2.30;;;1.27;;
16577;SDS011;8401;52.528;13.340;2024-01-07T04:26:15;2.03;;;1.33;;
16577;SDS011;8401;52.528;13.340;2024-01-07T04:28:40;1.53;;;1.17;;
16577;SDS011;8401;52.528;13.340;2024-01-07T04:31:07;2.87;;;1.60;;
16577;SDS011;8401;52.528;13.340;2024-01-07T04:33:33;3.03;;;1.77;;
16577;SDS011;8401;52.528;13.340;2024-01-07T04:35:58;3.60;;;1.10;;
16577;SDS011;8401;52.528;13.340;2024-01-07T04:38:25;4.07;;;1.63;;
16577;SDS011;8401;52.528;13.340;2024-01-07T04:40:51;3.23;;;1.70;;
16577;SDS011;8401;52.528;13.340;2024-01-07T04:43:17;1.57;;;0.83;;
16577;SDS011;8401;52.528;13.340;2024-01-07T04:45:46;4.10;;;1.63;;
16577;SDS011;8401;52.528;13.340;2024-01-07T04:48:12;2.23;;;1.40;;
16577;SDS011;8401;52.528;13.340;2024-01-07T04:50:39;1.80;;;1.23;;
16577;SDS011;8401;52.528;13.340;2024-01-07T04:53:08;4.93;;;1.87;;
16577;SDS011;8401;52.528;13.340;2024-01-07T04:55:34;2.40;;;1.43;;
16577;SDS011;8401;52.528;13.340;2024-01-07T04:58:00;3.47;;;1.80;;
16577;SDS011;8401;52.528;13.340;2024-01-07T05:00:26;3.43;;;1.80;;
16577;SDS011;8401;52.528;13.340;2024-01-07T05:02:52;1.87;;;1.03;;
16577;SDS011;8401;52.528;13.340;2024-01-07T05:05:17;5.60;;;1.90;;
16577;SDS011;8401;52.528;13.340;2024-01-07T05:07:43;3.80;;;2.10;;
16577;SDS011;8401;52.528;13.340;2024-01-07T05:10:09;2.10;;;1.57;;
16577;SDS011;8401;52.528;13.340;2024-01-07T05:12:35;3.00;;;1.70;;
16577;SDS011;8401;52.528;13.340;2024-01-07T05:15:00;2.00;;;1.43;;
16577;SDS011;8401;52.528;13.340;2024-01-07T05:17:26;1.77;;;1.50;;
16577;SDS011;8401;52.528;13.340;2024-01-07T05:19:53;1.93;;;1.57;;
16577;SDS011;8401;52.528;13.340;2024-01-07T05:22:18;2.63;;;1.37;;
16577;SDS011;8401;52.528;13.340;2024-01-07T05:24:44;3.50;;;1.67;;
16577;SDS011;8401;52.528;13.340;2024-01-07T05:27:09;2.50;;;1.30;;
16577;SDS011;8401;52.528;13.340;2024-01-07T05:29:35;2.27;;;1.70;;
16577;SDS011;8401;52.528;13.340;2024-01-07T05:32:01;2.80;;;1.93;;
16577;SDS011;8401;52.528;13.340;2024-01-07T05:34:27;2.03;;;1.47;;
16577;SDS011;8401;52.528;13.340;2024-01-07T05:36:53;3.77;;;1.50;;
16577;SDS011;8401;52.528;13.340;2024-01-07T05:39:19;2.40;;;1.47;;
16577;SDS011;8401;52.528;13.340;2024-01-07T05:41:44;3.83;;;1.77;;
16577;SDS011;8401;52.528;13.340;2024-01-07T05:44:11;3.17;;;1.90;;
16577;SDS011;8401;52.528;13.340;2024-01-07T05:46:40;2.73;;;1.40;;
16577;SDS011;8401;52.528;13.340;2024-01-07T05:49:06;2.60;;;1.43;;
16577;SDS011;8401;52.528;13.340;2024-01-07T05:51:33;1.87;;;1.13;;
16577;SDS011;8401;52.528;13.340;2024-01-07T05:54:03;2.83;;;2.03;;
16577;SDS011;8401;52.528;13.340;2024-01-07T05:56:28;3.33;;;1.73;;
16577;SDS011;8401;52.528;13.340;2024-01-07T05:58:54;2.47;;;1.47;;
16577;SDS011;8401;52.528;13.340;2024-01-07T06:01:20;2.70;;;1.37;;
16577;SDS011;8401;52.528;13.340;2024-01-07T06:03:46;3.03;;;1.70;;
16577;SDS011;8401;52.528;13.340;2024-01-07T06:06:13;2.90;;;1.87;;
16577;SDS011;8401;52.528;13.340;2024-01-07T06:08:40;3.17;;;1.83;;
16577;SDS011;8401;52.528;13.340;2024-01-07T06:11:08;2.57;;;1.63;;
16577;SDS011;8401;52.528;13.340;2024-01-07T06:13:35;2.83;;;2.03;;
16577;SDS011;8401;52.528;13.340;2024-01-07T06:16:01;3.70;;;2.50;;
16577;SDS011;8401;52.528;13.340;2024-01-07T06:18:27;3.90;;;2.10;;
16577;SDS011;8401;52.528;13.340;2024-01-07T06:20:53;4.97;;;1.93;;
16577;SDS011;8401;52.528;13.340;2024-01-07T06:23:18;3.30;;;2.13;;
16577;SDS011;8401;52.528;13.340;2024-01-07T06:25:44;3.13;;;2.10;;
16577;SDS011;8401;52.528;13.340;2024-01-07T06:28:10;3.13;;;1.83;;
16577;SDS011;8401;52.528;13.340;2024-01-07T06:30:35;3.33;;;1.60;;
16577;SDS011;8401;52.528;13.340;2024-01-07T06:33:01;4.17;;;2.30;;
16577;SDS011;8401;52.528;13.340;2024-01-07T06:35:27;4.13;;;2.23;;
16577;SDS011;8401;52.528;13.340;2024-01-07T06:37:53;4.53;;;2.40;;
16577;SDS011;8401;52.528;13.340;2024-01-07T06:40:18;4.43;;;2.17;;
16577;SDS011;8401;52.528;13.340;2024-01-07T06:42:45;3.03;;;2.07;;
16577;SDS011;8401;52.528;13.340;2024-01-07T06:45:12;3.80;;;2.20;;
16577;SDS011;8401;52.528;13.340;2024-01-07T06:47:40;3.13;;;2.10;;
16577;SDS011;8401;52.528;13.340;2024-01-07T06:50:07;2.47;;;1.80;;
16577;SDS011;8401;52.528;13.340;2024-01-07T06:52:32;4.60;;;2.17;;
16577;SDS011;8401;52.528;13.340;2024-01-07T06:54:58;3.43;;;2.30;;
16577;SDS011;8401;52.528;13.340;2024-01-07T06:57:24;3.07;;;2.00;;
16577;SDS011;8401;52.528;13.340;2024-01-07T06:59:49;3.23;;;1.60;;
16577;SDS011;8401;52.528;13.340;2024-01-07T07:02:15;4.03;;;2.27;;
16577;SDS011;8401;52.528;13.340;2024-01-07T07:04:41;3.33;;;1.83;;
16577;SDS011;8401;52.528;13.340;2024-01-07T07:07:06;3.83;;;2.20;;
16577;SDS011;8401;52.528;13.340;2024-01-07T07:09:32;4.37;;;2.20;;
16577;SDS011;8401;52.528;13.340;2024-01-07T07:11:59;3.43;;;2.17;;
16577;SDS011;8401;52.528;13.340;2024-01-07T07:14:25;4.30;;;2.40;;
16577;SDS011;8401;52.528;13.340;2024-01-07T07:16:50;5.13;;;2.10;;
16577;SDS011;8401;52.528;13.340;2024-01-07T07:19:16;3.03;;;2.23;;
16577;SDS011;8401;52.528;13.340;2024-01-07T07:21:42;4.30;;;2.23;;
16577;SDS011;8401;52.528;13.340;2024-01-07T07:24:09;3.20;;;2.07;;
16577;SDS011;8401;52.528;13.340;2024-01-07T07:26:34;3.43;;;2.13;;
16577;SDS011;8401;52.528;13.340;2024-01-07T07:29:01;5.37;;;2.30;;
16577;SDS011;8401;52.528;13.340;2024-01-07T07:31:27;2.73;;;1.80;;
16577;SDS011;8401;52.528;13.340;2024-01-07T07:33:52;2.33;;;1.50;;
16577;SDS011;8401;52.528;13.340;2024-01-07T07:36:18;3.77;;;2.57;;
16577;SDS011;8401;52.528;13.340;2024-01-07T07:38:43;2.67;;;1.87;;
16577;SDS011;8401;52.528;13.340;2024-01-07T07:41:09;4.50;;;2.40;;
16577;SDS011;8401;52.528;13.340;2024-01-07T07:43:35;3.37;;;2.00;;
16577;SDS011;8401;52.528;13.340;2024-01-07T07:46:00;3.40;;;2.43;;
16577;SDS011;8401;52.528;13.340;2024-01-07T07:48:28;4.40;;;2.20;;
16577;SDS011;8401;52.528;13.340;2024-01-07T07:50:53;4.17;;;2.43;;
16577;SDS011;8401;52.528;13.340;2024-01-07T07:53:19;2.57;;;1.77;;
16577;SDS011;8401;52.528;13.340;2024-01-07T07:55:45;3.73;;;2.00;;
16577;SDS011;8401;52.528;13.340;2024-01-07T07:58:11;2.83;;;2.17;;
16577;SDS011;8401;52.528;13.340;2024-01-07T08:00:36;3.70;;;1.47;;
16577;SDS011;8401;52.528;13.340;2024-01-07T08:03:02;3.63;;;2.43;;
16577;SDS011;8401;52.528;13.340;2024-01-07T08:05:28;4.53;;;1.90;;
16577;SDS011;8401;52.528;13.340;2024-01-07T08:07:53;3.17;;;2.30;;
16577;SDS011;8401;52.528;13.340;2024-01-07T08:10:20;2.93;;;2.00;;
16577;SDS011;8401;52.528;13.340;2024-01-07T08:12:47;4.70;;;2.30;;
16577;SDS011;8401;52.528;13.340;2024-01-07T08:15:14;2.73;;;1.90;;
16577;SDS011;8401;52.528;13.340;2024-01-07T08:17:40;5.10;;;1.70;;
16577;SDS011;8401;52.528;13.340;2024-01-07T08:20:06;2.97;;;2.03;;
16577;SDS011;8401;52.528;13.340;2024-01-07T08:22:32;3.77;;;2.00;;
16577;SDS011;8401;52.528;13.340;2024-01-07T08:24:57;3.73;;;2.33;;
16577;SDS011;8401;52.528;13.340;2024-01-07T08:27:23;3.43;;;2.40;;
16577;SDS011;8401;52.528;13.340;2024-01-07T08:29:49;4.30;;;2.33;;
16577;SDS011;8401;52.528;13.340;2024-01-07T08:32:14;3.10;;;2.33;;
16577;SDS011;8401;52.528;13.340;2024-01-07T08:34:40;3.10;;;2.20;;
16577;SDS011;8401;52.528;13.340;2024-01-07T08:37:07;3.90;;;2.83;;
16577;SDS011;8401;52.528;13.340;2024-01-07T08:39:33;3.50;;;2.43;;
16577;SDS011;8401;52.528;13.340;2024-01-07T08:41:59;6.57;;;2.43;;
16577;SDS011;8401;52.528;13.340;2024-01-07T08:44:24;3.47;;;2.33;;
16577;SDS011;8401;52.528;13.340;2024-01-07T08:46:50;4.27;;;2.30;;
16577;SDS011;8401;52.528;13.340;2024-01-07T08:49:16;4.67;;;2.60;;
16577;SDS011;8401;52.528;13.340;2024-01-07T08:51:41;4.53;;;2.83;;
16577;SDS011;8401;52.528;13.340;2024-01-07T08:54:07;4.37;;;2.60;;
16577;SDS011;8401;52.528;13.340;2024-01-07T08:56:33;4.40;;;3.00;;
16577;SDS011;8401;52.528;13.340;2024-01-07T08:58:58;5.20;;;3.20;;
16577;SDS011;8401;52.528;13.340;2024-01-07T09:01:24;4.47;;;2.80;;
16577;SDS011;8401;52.528;13.340;2024-01-07T09:03:50;3.20;;;2.27;;
16577;SDS011;8401;52.528;13.340;2024-01-07T09:06:16;3.47;;;2.73;;
16577;SDS011;8401;52.528;13.340;2024-01-07T09:08:42;3.10;;;2.60;;
16577;SDS011;8401;52.528;13.340;2024-01-07T09:11:07;6.87;;;3.00;;
16577;SDS011;8401;52.528;13.340;2024-01-07T09:13:36;4.23;;;2.63;;
16577;SDS011;8401;52.528;13.340;2024-01-07T09:16:03;4.57;;;2.80;;
16577;SDS011;8401;52.528;13.340;2024-01-07T09:18:29;3.50;;;2.30;;
16577;SDS011;8401;52.528;13.340;2024-01-07T09:20:55;4.90;;;2.97;;
16577;SDS011;8401;52.528;13.340;2024-01-07T09:23:21;4.33;;;3.43;;
16577;SDS011;8401;52.528;13.340;2024-01-07T09:25:47;5.77;;;2.77;;
16577;SDS011;8401;52.528;13.340;2024-01-07T09:28:14;5.13;;;3.03;;
16577;SDS011;8401;52.528;13.340;2024-01-07T09:30:40;5.50;;;3.27;;
16577;SDS011;8401;52.528;13.340;2024-01-07T09:33:05;4.63;;;3.00;;
16577;SDS011;8401;52.528;13.340;2024-01-07T09:35:31;5.60;;;3.60;;
16577;SDS011;8401;52.528;13.340;2024-01-07T09:37:57;6.10;;;3.13;;
16577;SDS011;8401;52.528;13.340;2024-01-07T09:40:23;5.17;;;3.47;;
16577;SDS011;8401;52.528;13.340;2024-01-07T09:42:48;5.67;;;3.97;;
16577;SDS011;8401;52.528;13.340;2024-01-07T09:45:15;7.60;;;3.00;;
16577;SDS011;8401;52.528;13.340;2024-01-07T09:47:43;5.77;;;3.50;;
16577;SDS011;8401;52.528;13.340;2024-01-07T09:50:10;5.63;;;3.43;;
16577;SDS011;8401;52.528;13.340;2024-01-07T09:52:35;6.80;;;3.80;;
16577;SDS011;8401;52.528;13.340;2024-01-07T09:55:03;6.03;;;3.57;;
16577;SDS011;8401;52.528;13.340;2024-01-07T09:57:33;6.40;;;3.30;;
16577;SDS011;8401;52.528;13.340;2024-01-07T09:59:59;6.43;;;3.33;;
16577;SDS011;8401;52.528;13.340;2024-01-07T10:02:26;7.20;;;3.73;;
16577;SDS011;8401;52.528;13.340;2024-01-07T10:04:52;6.13;;;3.27;;
16577;SDS011;8401;52.528;13.340;2024-01-07T10:07:18;5.43;;;3.43;;
16577;SDS011;8401;52.528;13.340;2024-01-07T10:09:44;3.80;;;2.97;;
16577;SDS011;8401;52.528;13.340;2024-01-07T10:12:10;5.97;;;3.67;;
16577;SDS011;8401;52.528;13.340;2024-01-07T10:14:37;4.77;;;3.57;;
16577;SDS011;8401;52.528;13.340;2024-01-07T10:17:14;6.87;;;3.50;;
16577;SDS011;8401;52.528;13.340;2024-01-07T10:19:44;7.20;;;3.90;;
16577;SDS011;8401;52.528;13.340;2024-01-07T10:22:11;5.83;;;3.63;;
16577;SDS011;8401;52.528;13.340;2024-01-07T10:24:41;8.20;;;3.93;;
16577;SDS011;8401;52.528;13.340;2024-01-07T10:27:08;7.37;;;4.00;;
16577;SDS011;8401;52.528;13.340;2024-01-07T10:29:35;5.67;;;3.90;;
16577;SDS011;8401;52.528;13.340;2024-01-07T10:32:02;5.93;;;4.00;;
16577;SDS011;8401;52.528;13.340;2024-01-07T10:34:33;5.20;;;3.67;;
16577;SDS011;8401;52.528;13.340;2024-01-07T10:37:00;7.27;;;4.50;;
16577;SDS011;8401;52.528;13.340;2024-01-07T10:39:27;6.43;;;4.07;;
16577;SDS011;8401;52.528;13.340;2024-01-07T10:41:54;5.50;;;3.97;;
16577;SDS011;8401;52.528;13.340;2024-01-07T10:44:26;6.30;;;3.50;;
16577;SDS011;8401;52.528;13.340;2024-01-07T10:46:56;6.37;;;3.77;;
16577;SDS011;8401;52.528;13.340;2024-01-07T10:49:23;6.57;;;4.17;;
16577;SDS011;8401;52.528;13.340;2024-01-07T10:51:54;6.50;;;3.67;;
16577;SDS011;8401;52.528;13.340;2024-01-07T10:54:32;7.23;;;4.20;;
16577;SDS011;8401;52.528;13.340;2024-01-07T10:57:01;6.97;;;3.60;;
16577;SDS011;8401;52.528;13.340;2024-01-07T10:59:46;6.20;;;4.27;;
16577;SDS011;8401;52.528;13.340;2024-01-07T11:02:13;6.30;;;4.17;;
16577;SDS011;8401;52.528;13.340;2024-01-07T11:07:44;7.43;;;4.03;;
16577;SDS011;8401;52.528;13.340;2024-01-07T11:10:17;7.40;;;4.13;;
16577;SDS011;8401;52.528;13.340;2024-01-07T11:12:54;5.60;;;3.87;;
16577;SDS011;8401;52.528;13.340;2024-01-07T11:18:18;5.60;;;3.87;;
16577;SDS011;8401;52.528;13.340;2024-01-07T11:20:45;6.37;;;3.83;;
16577;SDS011;8401;52.528;13.340;2024-01-07T11:25:58;7.27;;;3.70;;
16577;SDS011;8401;52.528;13.340;2024-01-07T11:31:13;4.63;;;3.33;;
16577;SDS011;8401;52.528;13.340;2024-01-07T11:33:44;4.47;;;3.23;;
16577;SDS011;8401;52.528;13.340;2024-01-07T11:36:11;7.60;;;4.00;;
16577;SDS011;8401;52.528;13.340;2024-01-07T11:38:41;7.37;;;3.40;;
16577;SDS011;8401;52.528;13.340;2024-01-07T11:41:13;8.70;;;4.07;;
16577;SDS011;8401;52.528;13.340;2024-01-07T11:43:55;6.40;;;3.57;;
16577;SDS011;8401;52.528;13.340;2024-01-07T11:46:24;5.33;;;3.43;;
16577;SDS011;8401;52.528;13.340;2024-01-07T11:48:54;5.57;;;3.57;;
16577;SDS011;8401;52.528;13.340;2024-01-07T11:51:27;6.27;;;4.37;;
16577;SDS011;8401;52.528;13.340;2024-01-07T11:53:57;4.37;;;3.67;;
16577;SDS011;8401;52.528;13.340;2024-01-07T11:56:24;7.90;;;4.30;;
16577;SDS011;8401;52.528;13.340;2024-01-07T11:58:51;6.33;;;4.00;;
16577;SDS011;8401;52.528;13.340;2024-01-07T12:01:17;5.53;;;4.37;;
16577;SDS011;8401;52.528;13.340;2024-01-07T12:03:46;6.90;;;4.20;;
16577;SDS011;8401;52.528;13.340;2024-01-07T12:06:12;6.07;;;4.17;;
16577;SDS011;8401;52.528;13.340;2024-01-07T12:08:48;5.67;;;4.30;;
16577;SDS011;8401;52.528;13.340;2024-01-07T12:11:14;7.83;;;3.77;;
16577;SDS011;8401;52.528;13.340;2024-01-07T12:13:41;6.43;;;4.37;;
16577;SDS011;8401;52.528;13.340;2024-01-07T12:16:08;4.73;;;3.53;;
16577;SDS011;8401;52.528;13.340;2024-01-07T12:18:37;5.70;;;3.60;;
16577;SDS011;8401;52.528;13.340;2024-01-07T12:21:06;4.90;;;3.63;;
16577;SDS011;8401;52.528;13.340;2024-01-07T12:23:34;5.87;;;3.83;;
16577;SDS011;8401;52.528;13.340;2024-01-07T12:26:07;6.87;;;3.43;;
16577;SDS011;8401;52.528;13.340;2024-01-07T12:28:34;5.73;;;3.50;;
16577;SDS011;8401;52.528;13.340;2024-01-07T12:30:59;6.70;;;4.30;;
16577;SDS011;8401;52.528;13.340;2024-01-07T12:33:26;5.70;;;3.87;;
16577;SDS011;8401;52.528;13.340;2024-01-07T12:35:54;6.40;;;3.37;;
16577;SDS011;8401;52.528;13.340;2024-01-07T12:38:29;7.50;;;3.77;;
16577;SDS011;8401;52.528;13.340;2024-01-07T12:40:55;6.33;;;3.60;;
16577;SDS011;8401;52.528;13.340;2024-01-07T12:43:21;4.47;;;3.00;;
16577;SDS011;8401;52.528;13.340;2024-01-07T12:45:48;5.97;;;3.30;;
16577;SDS011;8401;52.528;13.340;2024-01-07T12:48:14;5.40;;;3.00;;
16577;SDS011;8401;52.528;13.340;2024-01-07T12:50:40;5.80;;;2.90;;
16577;SDS011;8401;52.528;13.340;2024-01-07T12:53:06;5.23;;;3.20;;
16577;SDS011;8401;52.528;13.340;2024-01-07T12:55:32;7.27;;;4.27;;
16577;SDS011;8401;52.528;13.340;2024-01-07T12:57:58;4.63;;;3.30;;
16577;SDS011;8401;52.528;13.340;2024-01-07T13:00:24;3.93;;;2.90;;
16577;SDS011;8401;52.528;13.340;2024-01-07T13:02:51;4.90;;;3.20;;
16577;SDS011;8401;52.528;13.340;2024-01-07T13:05:17;4.30;;;2.77;;
16577;SDS011;8401;52.528;13.340;2024-01-07T13:07:43;5.07;;;3.30;;
16577;SDS011;8401;52.528;13.340;2024-01-07T13:10:09;7.07;;;3.77;;
16577;SDS011;8401;52.528;13.340;2024-01-07T13:12:35;4.60;;;3.27;;
16577;SDS011;8401;52.528;13.340;2024-01-07T13:15:01;3.90;;;2.90;;
16577;SDS011;8401;52.528;13.340;2024-01-07T13:17:28;5.10;;;3.07;;
16577;SDS011;8401;52.528;13.340;2024-01-07T13:19:55;5.60;;;3.40;;
16577;SDS011;8401;52.528;13.340;2024-01-07T13:22:21;4.33;;;3.33;;
16577;SDS011;8401;52.528;13.340;2024-01-07T13:24:46;5.73;;;2.80;;
16577;SDS011;8401;52.528;13.340;2024-01-07T13:27:12;6.83;;;3.20;;
16577;SDS011;8401;52.528;13.340;2024-01-07T13:29:38;3.83;;;2.90;;
16577;SDS011;8401;52.528;13.340;2024-01-07T13:32:04;4.93;;;3.20;;
16577;SDS011;8401;52.528;13.340;2024-01-07T13:34:30;4.57;;;2.80;;
16577;SDS011;8401;52.528;13.340;2024-01-07T13:36:55;5.40;;;3.20;;
16577;SDS011;8401;52.528;13.340;2024-01-07T13:39:21;4.77;;;3.23;;
16577;SDS011;8401;52.528;13.340;2024-01-07T13:41:47;4.57;;;3.13;;
16577;SDS011;8401;52.528;13.340;2024-01-07T13:44:13;3.30;;;2.33;;
16577;SDS011;8401;52.528;13.340;2024-01-07T13:46:45;4.57;;;2.30;;
16577;SDS011;8401;52.528;13.340;2024-01-07T13:49:12;3.93;;;2.67;;
16577;SDS011;8401;52.528;13.340;2024-01-07T13:51:38;3.33;;;2.00;;
16577;SDS011;8401;52.528;13.340;2024-01-07T13:54:04;4.10;;;2.57;;
16577;SDS011;8401;52.528;13.340;2024-01-07T13:56:30;4.23;;;2.60;;
16577;SDS011;8401;52.528;13.340;2024-01-07T13:58:56;4.47;;;3.10;;
16577;SDS011;8401;52.528;13.340;2024-01-07T14:01:22;3.80;;;2.40;;
16577;SDS011;8401;52.528;13.340;2024-01-07T14:03:48;4.37;;;2.03;;
16577;SDS011;8401;52.528;13.340;2024-01-07T14:06:13;2.33;;;1.80;;
16577;SDS011;8401;52.528;13.340;2024-01-07T14:08:39;2.37;;;2.10;;
16577;SDS011;8401;52.528;13.340;2024-01-07T14:11:05;3.13;;;2.53;;
16577;SDS011;8401;52.528;13.340;2024-01-07T14:13:32;4.60;;;2.03;;
16577;SDS011;8401;52.528;13.340;2024-01-07T14:15:58;3.97;;;2.23;;
16577;SDS011;8401;52.528;13.340;2024-01-07T14:18:24;3.33;;;2.10;;
16577;SDS011;8401;52.528;13.340;2024-01-07T14:20:50;2.80;;;2.03;;
16577;SDS011;8401;52.528;13.340;2024-01-07T14:23:15;2.67;;;1.83;;
16577;SDS011;8401;52.528;13.340;2024-01-07T14:25:41;4.60;;;2.93;;
16577;SDS011;8401;52.528;13.340;2024-01-07T14:28:07;4.60;;;2.70;;
16577;SDS011;8401;52.528;13.340;2024-01-07T14:30:33;3.50;;;2.00;;
16577;SDS011;8401;52.528;13.340;2024-01-07T14:32:58;7.50;;;2.10;;
16577;SDS011;8401;52.528;13.340;2024-01-07T14:35:24;3.33;;;2.43;;
16577;SDS011;8401;52.528;13.340;2024-01-07T14:37:51;4.20;;;2.40;;
16577;SDS011;8401;52.528;13.340;2024-01-07T14:40:20;3.07;;;2.30;;
16577;SDS011;8401;52.528;13.340;2024-01-07T14:42:45;4.57;;;2.50;;
16577;SDS011;8401;52.528;13.340;2024-01-07T14:45:11;4.57;;;2.37;;
16577;SDS011;8401;52.528;13.340;2024-01-07T14:47:37;3.07;;;2.30;;
16577;SDS011;8401;52.528;13.340;2024-01-07T14:50:03;4.13;;;2.50;;
16577;SDS011;8401;52.528;13.340;2024-01-07T14:52:29;3.87;;;2.83;;
16577;SDS011;8401;52.528;13.340;2024-01-07T14:54:54;4.30;;;2.77;;